createdAt,value
2023-11-02T00:00:37.943Z,99467.72
2023-11-02T00:03:06.577Z,99461.63
2023-11-02T00:10:08.013Z,99459.38
2023-11-02T00:12:34.628Z,99448.94
2023-11-02T00:15:01.602Z,99432.69
2023-11-02T00:17:37.749Z,99430.59
2023-11-02T00:20:08.594Z,99428.97
2023-11-02T00:22:54.948Z,99428.22
2023-11-02T00:26:11.173Z,99426.06
2023-11-02T00:28:38.504Z,99429.97
2023-11-02T00:31:07.125Z,99429.44
2023-11-02T00:33:34.371Z,99426.97
2023-11-02T00:36:01.006Z,99424.16
2023-11-02T00:38:28.606Z,99410.91
2023-11-02T00:40:56.825Z,99417.50
2023-11-02T00:43:23.909Z,99417.25
2023-11-02T00:49:33.268Z,99407.69
2023-11-02T00:52:02.455Z,99401.09
2023-11-02T00:54:44.220Z,99394.09
2023-11-02T00:57:15.442Z,99381.47
2023-11-02T00:59:43.339Z,99394.34
2023-11-02T01:02:09.875Z,99403.59
2023-11-02T01:04:45.792Z,99390.28
2023-11-02T01:07:30.638Z,99389.91
2023-11-02T01:10:00.297Z,99387.97
2023-11-02T01:12:38.564Z,99383.28
2023-11-02T01:15:12.510Z,99379.81
2023-11-02T01:17:46.292Z,99380.00
2023-11-02T01:20:15.637Z,99385.00
2023-11-02T01:22:49.864Z,99378.41
2023-11-02T01:25:16.299Z,99371.88
2023-11-02T01:46:27.699Z,99345.59
2023-11-02T02:30:16.246Z,99276.06
2023-11-02T02:33:07.770Z,99265.75
2023-11-02T02:35:48.360Z,99257.56
2023-11-02T02:38:19.890Z,99245.88
2023-11-02T02:41:08.384Z,99244.53
2023-11-02T02:43:35.593Z,99254.94
2023-11-02T02:46:07.815Z,99249.41
2023-11-02T02:48:38.281Z,99248.41
2023-11-02T03:13:13.713Z,99171.56
2023-11-02T03:15:42.621Z,99167.84
2023-11-02T03:18:13.995Z,99157.44
2023-11-02T03:20:49.103Z,99154.44
2023-11-02T03:23:15.505Z,99150.09
2023-11-02T03:25:59.087Z,99140.38
2023-11-02T03:28:56.573Z,99137.06
2023-11-02T03:32:00.735Z,99120.75
2023-11-02T03:34:54.761Z,99118.66
2023-11-02T03:37:34.695Z,99103.50
2023-11-02T03:40:06.023Z,99105.59
2023-11-02T03:42:48.142Z,99102.25
2023-11-02T03:45:33.032Z,99091.66
2023-11-02T03:48:17.858Z,99072.06
2023-11-02T03:50:58.069Z,99060.97
2023-11-02T03:53:34.841Z,99041.19
2023-11-02T03:56:42.344Z,99032.41
2023-11-02T03:59:21.421Z,99025.06
2023-11-02T04:02:01.792Z,99022.19
2023-11-02T04:04:41.805Z,99023.38
2023-11-02T04:07:23.450Z,99002.88
2023-11-02T04:09:54.870Z,98985.31
2023-11-02T04:13:17.341Z,98978.63
2023-11-02T04:15:44.091Z,98964.22
2023-11-02T04:18:10.633Z,98970.38
2023-11-02T04:20:40.038Z,98971.19
2023-11-02T04:23:06.708Z,98959.69
2023-11-02T04:25:33.273Z,98958.84
2023-11-02T04:28:01.448Z,98945.31
2023-11-02T04:30:28.270Z,98942.50
2023-11-02T04:36:36.930Z,98912.53
2023-11-02T04:39:04.038Z,98905.19
2023-11-02T04:41:30.617Z,98896.44
2023-11-02T04:43:57.207Z,98892.44
2023-11-02T04:46:24.931Z,98878.84
2023-11-02T04:48:52.853Z,98869.22
2023-11-02T04:51:19.534Z,98843.75
2023-11-02T04:57:26.862Z,98811.56
2023-11-02T04:59:53.305Z,98809.91
2023-11-02T05:02:19.838Z,98801.28
2023-11-02T05:04:46.263Z,98791.00
2023-11-02T05:07:12.836Z,98784.78
2023-11-02T05:09:39.340Z,98789.28
2023-11-02T05:12:05.897Z,98785.63
2023-11-02T05:36:36.906Z,98759.44
2023-11-02T05:39:06.961Z,98746.09
2023-11-02T05:41:34.089Z,98747.09
2023-11-02T05:44:00.887Z,98736.63
2023-11-02T05:46:27.364Z,98732.59
2023-11-02T05:48:53.877Z,98727.31
2023-11-02T05:51:20.440Z,98709.94
2023-11-02T05:53:46.958Z,98707.72
2023-11-02T05:56:38.535Z,98692.13
2023-11-02T05:59:06.383Z,98701.81
2023-11-02T06:01:32.984Z,98700.66
2023-11-02T06:04:00.278Z,98693.75
2023-11-02T06:06:26.920Z,98694.16
2023-11-02T06:08:53.417Z,98684.25
2023-11-02T06:11:20.226Z,98680.59
2023-11-02T06:13:46.758Z,98656.91
2023-11-02T06:38:22.432Z,98534.00
2023-11-02T06:40:52.343Z,98530.94
2023-11-02T06:43:18.883Z,98530.94
2023-11-02T06:45:45.637Z,98537.22
2023-11-02T06:48:12.285Z,98526.28
2023-11-02T06:50:38.952Z,98524.28
2023-11-02T06:53:05.489Z,98505.63
2023-11-02T06:55:33.058Z,98474.63
2023-11-02T06:58:30.160Z,98463.88
2023-11-02T07:00:57.990Z,98442.34
2023-11-02T07:03:26.889Z,98463.00
2023-11-02T07:05:54.440Z,98482.03
2023-11-02T07:08:20.907Z,98480.63
2023-11-02T07:10:47.399Z,98477.56
2023-11-02T07:13:16.910Z,98459.53
2023-11-02T07:15:43.823Z,98459.69
2023-11-02T07:40:16.014Z,98398.16
2023-11-02T07:42:43.109Z,98388.00
2023-11-02T07:45:10.544Z,98350.88
2023-11-02T07:47:37.086Z,98344.97
2023-11-02T07:50:05.165Z,98358.31
2023-11-02T07:52:32.154Z,98395.22
2023-11-02T07:54:58.966Z,98395.78
2023-11-02T07:57:26.246Z,98412.97
2023-11-02T08:00:30.395Z,98422.84
2023-11-02T08:02:57.011Z,98373.78
2023-11-02T08:05:23.556Z,98370.50
2023-11-02T08:07:50.017Z,98391.16
2023-11-02T08:10:16.626Z,98343.69
2023-11-02T08:12:43.390Z,98363.38
2023-11-02T08:15:10.298Z,98373.56
2023-11-02T08:17:39.014Z,98379.22
2023-11-02T08:21:03.997Z,98378.97
2023-11-02T08:23:31.456Z,98371.84
2023-11-02T08:25:58.076Z,98351.34
2023-11-02T08:28:24.644Z,98347.81
2023-11-02T08:30:51.581Z,98360.78
2023-11-02T08:33:18.183Z,98364.22
2023-11-02T08:35:44.671Z,98351.19
2023-11-02T08:38:12.726Z,98339.84
2023-11-02T09:24:49.957Z,98244.53
2023-11-02T09:27:16.439Z,98221.63
2023-11-02T09:29:46.609Z,98229.53
2023-11-02T09:32:13.185Z,98227.81
2023-11-02T09:34:40.051Z,98230.53
2023-11-02T09:37:07.075Z,98221.38
2023-11-02T09:39:33.708Z,98222.16
2023-11-02T09:42:01.078Z,98215.19
2023-11-02T09:44:28.361Z,98194.88
2023-11-02T09:46:55.805Z,98194.41
2023-11-02T09:49:22.352Z,98170.28
2023-11-02T09:51:49.264Z,98154.34
2023-11-02T09:54:15.997Z,98137.34
2023-11-02T09:56:43.032Z,98161.94
2023-11-02T09:59:10.749Z,98131.63
2023-11-02T10:01:37.552Z,98154.13
2023-11-02T10:04:32.626Z,98143.44
2023-11-02T10:06:59.201Z,98154.22
2023-11-02T10:09:25.751Z,98140.13
2023-11-02T10:11:52.301Z,98139.16
2023-11-02T10:14:19.054Z,98129.28
2023-11-02T10:16:45.516Z,98148.16
2023-11-02T10:19:12.189Z,98155.03
2023-11-02T10:21:42.040Z,98133.94
2023-11-02T10:24:55.466Z,98138.03
2023-11-02T10:27:23.538Z,98136.09
2023-11-02T10:29:50.700Z,98132.88
2023-11-02T10:32:17.369Z,98119.84
2023-11-02T10:34:45.090Z,98096.06
2023-11-02T10:37:11.945Z,98085.03
2023-11-02T10:39:39.117Z,98072.22
2023-11-02T10:42:06.134Z,98065.72
2023-11-02T10:48:17.071Z,98058.75
2023-11-02T10:50:46.125Z,98056.50
2023-11-02T10:53:40.153Z,98059.50
2023-11-02T10:56:13.969Z,98057.31
2023-11-02T10:58:41.786Z,98049.75
2023-11-02T11:01:10.797Z,98043.72
2023-11-02T11:03:37.704Z,98048.78
2023-11-02T11:06:17.778Z,98034.97
2023-11-02T11:08:45.021Z,98030.97
2023-11-02T11:11:13.819Z,98043.56
2023-11-02T11:13:40.753Z,98039.44
2023-11-02T11:16:12.378Z,98048.38
2023-11-02T11:18:40.227Z,98044.03
2023-11-02T11:21:08.672Z,98056.88
2023-11-02T11:23:39.053Z,98054.59
2023-11-02T11:48:50.172Z,98035.03
2023-11-02T11:51:46.547Z,98027.59
2023-11-02T11:54:16.269Z,98028.38
2023-11-02T11:56:46.696Z,98029.34
2023-11-02T11:59:13.328Z,98030.78
2023-11-02T12:01:39.830Z,98025.09
2023-11-02T12:04:09.321Z,98037.75
2023-11-02T12:06:40.280Z,98012.03
2023-11-02T12:09:17.436Z,98019.53
2023-11-02T12:11:44.423Z,98027.13
2023-11-02T12:14:21.987Z,98015.81
2023-11-02T12:16:52.765Z,98003.13
2023-11-02T12:19:20.188Z,98000.41
2023-11-02T12:22:04.915Z,98002.78
2023-11-02T12:24:32.102Z,97996.47
2023-11-02T12:27:28.119Z,97999.50
2023-11-02T12:30:01.234Z,97993.66
2023-11-02T12:32:27.781Z,98000.06
2023-11-02T12:34:57.151Z,98000.44
2023-11-02T12:37:27.852Z,97987.13
2023-11-02T12:39:58.476Z,97983.25
2023-11-02T12:42:25.588Z,97981.81
2023-11-02T12:44:52.498Z,97992.97
2023-11-02T12:47:20.333Z,97980.22
2023-11-02T12:49:46.911Z,97975.78
2023-11-02T12:52:13.422Z,97977.47
2023-11-02T12:54:39.907Z,97951.88
2023-11-02T12:57:10.956Z,97935.91
2023-11-02T12:59:47.455Z,97924.47
2023-11-02T13:02:26.535Z,97931.28
2023-11-02T13:04:54.917Z,97929.16
2023-11-02T13:07:28.974Z,97920.75
2023-11-02T13:10:18.532Z,97923.56
2023-11-02T13:12:46.093Z,97938.63
2023-11-02T13:15:14.256Z,97941.09
2023-11-02T13:17:44.289Z,97939.53
2023-11-02T13:20:12.116Z,97940.13
2023-11-02T13:22:39.286Z,97929.91
2023-11-02T13:25:09.350Z,97929.09
2023-11-02T13:27:37.046Z,97917.44
2023-11-02T13:52:08.441Z,97898.78
2023-11-02T13:54:36.255Z,97895.28
2023-11-02T13:57:02.887Z,97885.59
2023-11-02T13:59:31.848Z,97894.59
2023-11-02T14:01:58.464Z,97887.69
2023-11-02T14:04:26.120Z,97881.84
2023-11-02T14:06:57.615Z,97877.03
2023-11-02T14:09:26.056Z,97865.88
2023-11-02T14:12:13.929Z,97853.63
2023-11-02T14:14:40.726Z,97860.59
2023-11-02T14:17:07.278Z,97853.94
2023-11-02T14:19:33.774Z,97853.72
2023-11-02T14:22:00.277Z,97856.19
2023-11-02T14:24:28.374Z,97849.66
2023-11-02T14:26:54.883Z,97857.19
2023-11-02T14:29:21.474Z,97848.78
2023-11-02T14:53:53.130Z,97853.81
2023-11-02T14:56:19.601Z,97846.75
2023-11-02T14:58:47.816Z,97842.03
2023-11-02T15:01:14.618Z,97846.81
2023-11-02T15:03:41.757Z,97840.69
2023-11-02T15:06:08.575Z,97834.59
2023-11-02T15:08:35.195Z,97827.91
2023-11-02T15:11:01.823Z,97823.13
2023-11-02T15:14:05.743Z,97830.69
2023-11-02T15:16:33.544Z,97813.44
2023-11-02T15:19:00.270Z,97815.84
2023-11-02T15:21:27.038Z,97804.34
2023-11-02T15:23:53.544Z,97803.69
2023-11-02T15:26:25.817Z,97794.59
2023-11-02T15:28:57.702Z,97799.81
2023-11-02T15:31:26.788Z,97792.81
2023-11-02T15:37:34.258Z,97797.03
2023-11-02T15:40:01.101Z,97812.06
2023-11-02T15:42:27.966Z,97795.22
2023-11-02T15:44:56.834Z,97795.09
2023-11-02T15:47:24.733Z,97805.06
2023-11-02T15:49:53.789Z,97812.03
2023-11-02T15:52:22.337Z,97815.31
2023-11-02T16:16:53.656Z,97823.94
2023-11-02T16:19:20.172Z,97830.06
2023-11-02T16:21:46.840Z,97838.72
2023-11-02T16:24:13.966Z,97841.44
2023-11-02T16:26:40.739Z,97838.78
2023-11-02T16:29:07.354Z,97840.22
2023-11-02T16:31:34.074Z,97842.59
2023-11-02T16:34:01.304Z,97851.69
2023-11-02T16:36:47.225Z,97846.31
2023-11-02T16:39:14.624Z,97862.31
2023-11-02T16:41:52.661Z,97859.56
2023-11-02T16:44:22.471Z,97868.41
2023-11-02T16:46:50.143Z,97862.13
2023-11-02T16:49:19.002Z,97863.03
2023-11-02T16:51:47.643Z,97859.22
2023-11-02T16:54:14.969Z,97861.56
2023-11-02T17:59:16.072Z,97886.63
2023-11-02T18:01:42.491Z,97891.16
2023-11-02T18:04:09.293Z,97887.72
2023-11-02T18:06:35.950Z,97901.84
2023-11-02T18:09:03.178Z,97895.88
2023-11-02T18:11:30.143Z,97905.75
2023-11-02T18:13:57.579Z,97902.66
2023-11-02T18:16:28.096Z,97897.84
2023-11-02T18:22:35.180Z,97911.94
2023-11-02T18:25:02.068Z,97903.59
2023-11-02T18:27:29.163Z,97900.94
2023-11-02T18:29:57.057Z,97918.38
2023-11-02T18:32:24.055Z,97908.88
2023-11-02T18:34:50.821Z,97925.81
2023-11-02T18:37:18.180Z,97919.75
2023-11-02T18:43:26.934Z,97909.88
2023-11-02T18:45:53.494Z,97923.53
2023-11-02T18:48:20.579Z,97917.59
2023-11-02T18:50:48.158Z,97920.44
2023-11-02T18:53:14.652Z,97914.13
2023-11-02T18:55:41.142Z,97911.13
2023-11-02T18:58:08.320Z,97896.47
2023-11-02T19:01:20.027Z,97905.19
2023-11-02T19:03:50.302Z,97911.25
2023-11-02T19:06:17.367Z,97910.34
2023-11-02T19:08:48.575Z,97911.50
2023-11-02T19:11:15.154Z,97913.78
2023-11-02T19:13:41.835Z,97919.16
2023-11-02T19:16:10.289Z,97911.38
2023-11-02T19:18:37.326Z,97924.19
2023-11-02T19:43:13.701Z,97927.22
2023-11-02T19:45:40.149Z,97932.81
2023-11-02T19:48:06.897Z,97927.22
2023-11-02T19:50:33.535Z,97923.66
2023-11-02T19:53:00.072Z,97921.59
2023-11-02T19:55:28.791Z,97927.56
2023-11-02T19:57:55.614Z,97932.94
2023-11-02T20:00:22.255Z,97937.22
2023-11-02T20:44:25.258Z,97973.84
2023-11-02T20:46:51.728Z,97965.81
2023-11-02T20:49:18.308Z,97977.72
2023-11-02T20:51:46.743Z,97983.53
2023-11-02T20:54:13.313Z,97978.78
2023-11-02T20:56:43.610Z,97981.66
2023-11-02T20:59:10.192Z,97979.47
2023-11-02T21:01:45.123Z,97963.25
2023-11-02T21:05:20.816Z,97959.91
2023-11-02T21:07:48.455Z,97969.13
2023-11-02T21:10:15.518Z,97966.13
2023-11-02T21:12:41.963Z,97977.78
2023-11-02T21:15:09.983Z,97968.81
2023-11-02T21:17:36.585Z,97961.97
2023-11-02T21:20:04.168Z,97962.50
2023-11-02T21:22:30.654Z,97962.63
2023-11-02T22:27:49.819Z,97930.19
2023-11-02T22:30:16.493Z,97920.16
2023-11-02T22:32:43.848Z,97919.38
2023-11-02T22:35:10.643Z,97913.56
2023-11-02T22:37:37.149Z,97917.59
2023-11-02T22:40:05.507Z,97915.69
2023-11-02T22:42:32.415Z,97919.13
2023-11-02T22:44:59.337Z,97929.22
2023-11-02T22:48:22.108Z,97937.34
2023-11-02T22:50:48.613Z,97945.09
2023-11-02T22:53:15.082Z,97944.78
2023-11-02T22:55:42.571Z,97961.97
2023-11-02T22:58:09.261Z,97970.34
2023-11-02T23:00:37.735Z,97969.81
2023-11-02T23:03:05.022Z,97979.34
2023-11-02T23:05:32.128Z,97980.88
2023-11-02T23:30:03.622Z,97951.34
2023-11-02T23:32:30.183Z,97951.34
2023-11-02T23:34:56.768Z,97948.38
2023-11-02T23:37:23.236Z,97947.13
2023-11-02T23:39:49.706Z,97944.84
2023-11-02T23:42:16.231Z,97943.81
2023-11-02T23:44:42.772Z,97940.59
2023-11-02T23:47:11.018Z,97952.50
2023-11-02T23:50:24.362Z,97948.75
2023-11-02T23:52:50.848Z,97950.34
2023-11-02T23:55:17.520Z,97958.81
2023-11-02T23:57:44.065Z,97959.84
